createdAt,value
2018-11-03T00:00:48.711Z,5.43
2018-11-03T00:03:17.264Z,4.27
2018-11-03T00:05:45.687Z,5.90
2018-11-03T00:08:14.103Z,4.40
2018-11-03T00:10:42.547Z,6.33
2018-11-03T00:13:11.041Z,4.23
2018-11-03T00:15:39.419Z,8.73
2018-11-03T00:18:12.572Z,4.93
2018-11-03T00:20:40.974Z,4.97
2018-11-03T00:23:09.673Z,5.60
2018-11-03T00:25:38.156Z,6.90
2018-11-03T00:28:06.640Z,5.83
2018-11-03T00:30:35.010Z,4.40
2018-11-03T00:33:03.430Z,5.37
2018-11-03T00:35:31.791Z,9.70
2018-11-03T00:38:00.182Z,7.20
2018-11-03T00:40:28.604Z,7.00
2018-11-03T00:42:56.993Z,8.90
2018-11-03T00:45:25.317Z,5.33
2018-11-03T00:47:53.730Z,7.23
2018-11-03T00:50:22.111Z,9.73
2018-11-03T00:52:50.529Z,5.67
2018-11-03T00:55:19.004Z,8.30
2018-11-03T00:57:47.408Z,4.93
2018-11-03T01:00:16.940Z,9.20
2018-11-03T01:02:46.605Z,6.23
2018-11-03T01:05:15.066Z,7.60
2018-11-03T01:07:43.987Z,7.83
2018-11-03T01:10:12.459Z,6.97
2018-11-03T01:12:41.450Z,5.40
2018-11-03T01:15:12.286Z,10.17
2018-11-03T01:17:40.692Z,5.83
2018-11-03T01:20:11.851Z,6.83
2018-11-03T01:22:40.251Z,5.87
2018-11-03T01:25:09.259Z,5.87
2018-11-03T01:27:37.661Z,5.30
2018-11-03T01:30:10.740Z,5.10
2018-11-03T01:32:39.262Z,5.17
2018-11-03T01:35:08.070Z,6.97
2018-11-03T01:37:36.682Z,6.97
2018-11-03T01:40:05.682Z,5.03
2018-11-03T01:42:34.104Z,6.73
2018-11-03T01:45:02.547Z,8.20
2018-11-03T01:47:30.924Z,5.83
2018-11-03T01:49:59.299Z,5.87
2018-11-03T01:52:27.670Z,10.77
2018-11-03T01:54:56.070Z,5.90
2018-11-03T01:57:24.553Z,7.50
2018-11-03T01:59:52.952Z,5.53
2018-11-03T02:02:21.323Z,6.87
2018-11-03T02:04:52.575Z,5.73
2018-11-03T02:07:20.927Z,5.90
2018-11-03T02:09:49.327Z,6.03
2018-11-03T02:12:17.738Z,7.00
2018-11-03T02:14:46.111Z,6.13
2018-11-03T02:17:14.502Z,5.70
2018-11-03T02:19:42.889Z,5.37
2018-11-03T02:22:11.233Z,5.70
2018-11-03T02:24:39.617Z,8.70
2018-11-03T02:27:08.238Z,4.73
2018-11-03T02:29:36.614Z,4.77
2018-11-03T02:32:05.160Z,5.83
2018-11-03T02:34:33.541Z,6.77
2018-11-03T02:37:01.911Z,5.30
2018-11-03T02:39:30.271Z,7.63
2018-11-03T02:41:58.648Z,6.90
2018-11-03T02:44:27.032Z,6.53
2018-11-03T02:46:55.428Z,6.17
2018-11-03T02:49:23.812Z,6.00
2018-11-03T02:51:52.214Z,6.70
2018-11-03T02:54:20.569Z,10.83
2018-11-03T02:56:48.967Z,8.07
2018-11-03T02:59:17.356Z,7.07
2018-11-03T03:01:45.751Z,11.07
2018-11-03T03:04:14.114Z,6.80
2018-11-03T03:06:42.526Z,7.10
2018-11-03T03:09:10.846Z,9.30
2018-11-03T03:11:39.229Z,9.27
2018-11-03T03:14:07.580Z,8.53
2018-11-03T03:16:35.958Z,7.00
2018-11-03T03:19:04.412Z,10.47
2018-11-03T03:21:32.798Z,11.73
2018-11-03T03:24:01.144Z,8.53
2018-11-03T03:26:29.529Z,7.23
2018-11-03T03:28:57.955Z,9.27
2018-11-03T03:31:26.373Z,9.40
2018-11-03T03:33:54.776Z,8.90
2018-11-03T03:36:23.166Z,10.70
2018-11-03T03:38:51.554Z,11.43
2018-11-03T03:41:19.974Z,9.03
2018-11-03T03:43:48.388Z,10.50
2018-11-03T03:46:16.802Z,13.63
2018-11-03T03:48:45.163Z,10.10
2018-11-03T03:51:13.563Z,12.47
2018-11-03T03:53:41.983Z,9.50
2018-11-03T03:56:10.363Z,8.87
2018-11-03T03:58:38.744Z,12.90
2018-11-03T04:01:07.171Z,11.87
2018-11-03T04:03:35.646Z,13.50
2018-11-03T04:06:04.198Z,22.83
2018-11-03T04:08:32.606Z,18.67
2018-11-03T04:11:00.991Z,12.70
2018-11-03T04:13:29.378Z,11.93
2018-11-03T04:15:57.892Z,11.60
2018-11-03T04:18:26.246Z,11.00
2018-11-03T04:20:54.624Z,11.70
2018-11-03T04:23:22.986Z,11.60
2018-11-03T04:25:51.376Z,15.77
2018-11-03T04:28:19.714Z,8.97
2018-11-03T04:30:48.087Z,10.17
2018-11-03T04:33:16.464Z,10.17
2018-11-03T04:35:44.814Z,13.53
2018-11-03T04:38:13.180Z,12.03
2018-11-03T04:40:41.536Z,13.50
2018-11-03T04:43:09.909Z,12.33
2018-11-03T04:45:38.404Z,13.63
2018-11-03T04:48:06.642Z,14.90
2018-11-03T04:50:35.011Z,13.20
2018-11-03T04:53:03.403Z,9.47
2018-11-03T04:55:31.763Z,13.07
2018-11-03T04:58:00.176Z,11.17
2018-11-03T05:00:28.524Z,12.83
2018-11-03T05:02:56.894Z,14.83
2018-11-03T05:05:25.250Z,19.87
2018-11-03T05:07:53.636Z,12.60
2018-11-03T05:10:22.077Z,13.57
2018-11-03T05:12:50.388Z,10.43
2018-11-03T05:15:18.767Z,14.80
2018-11-03T05:17:47.109Z,9.80
2018-11-03T05:20:15.530Z,15.20
2018-11-03T05:22:43.870Z,11.83
2018-11-03T05:25:12.254Z,12.27
2018-11-03T05:27:40.600Z,14.43
2018-11-03T05:30:09.231Z,13.43
2018-11-03T05:32:37.827Z,14.53
2018-11-03T05:35:06.438Z,11.13
2018-11-03T05:37:34.789Z,11.40
2018-11-03T05:40:03.205Z,16.43
2018-11-03T05:42:31.556Z,14.70
2018-11-03T05:45:00.037Z,11.67
2018-11-03T05:47:28.390Z,11.77
2018-11-03T05:49:56.765Z,14.30
2018-11-03T05:52:25.201Z,15.73
2018-11-03T05:54:53.608Z,11.10
2018-11-03T05:57:21.986Z,13.03
2018-11-03T05:59:50.402Z,16.27
2018-11-03T06:02:18.774Z,14.00
2018-11-03T06:04:47.983Z,16.37
2018-11-03T06:07:16.376Z,12.37
2018-11-03T06:09:44.788Z,15.03
2018-11-03T06:12:13.182Z,17.70
2018-11-03T06:14:41.550Z,16.07
2018-11-03T06:17:09.963Z,14.10
2018-11-03T06:19:38.384Z,18.40
2018-11-03T06:22:06.786Z,15.30
2018-11-03T06:24:35.165Z,12.67
2018-11-03T06:27:03.566Z,20.37
2018-11-03T06:29:31.992Z,18.93
2018-11-03T06:32:00.382Z,19.27
2018-11-03T06:34:28.746Z,14.03
2018-11-03T06:36:57.144Z,14.97
2018-11-03T06:39:25.547Z,18.50
2018-11-03T06:41:53.966Z,17.50
2018-11-03T06:44:22.364Z,17.10
2018-11-03T06:46:50.750Z,17.17
2018-11-03T06:49:20.914Z,14.93
2018-11-03T06:51:50.305Z,41.70
2018-11-03T06:54:18.719Z,18.03
2018-11-03T06:56:47.132Z,27.97
2018-11-03T06:59:16.144Z,13.37
2018-11-03T07:01:45.124Z,14.80
2018-11-03T07:04:13.501Z,15.37
2018-11-03T07:06:41.887Z,13.83
2018-11-03T07:09:11.702Z,15.20
2018-11-03T07:11:40.379Z,14.83
2018-11-03T07:14:09.134Z,17.13
2018-11-03T07:16:37.552Z,16.27
2018-11-03T07:19:06.015Z,16.23
2018-11-03T07:21:34.589Z,20.80
2018-11-03T07:24:02.938Z,16.97
2018-11-03T07:26:31.326Z,18.27
2018-11-03T07:28:59.678Z,20.70
2018-11-03T07:31:28.042Z,17.10
2018-11-03T07:33:56.393Z,20.13
2018-11-03T07:36:24.769Z,15.10
2018-11-03T07:38:53.227Z,17.27
2018-11-03T07:41:21.730Z,14.43
2018-11-03T07:43:50.022Z,15.00
2018-11-03T07:46:18.387Z,17.57
2018-11-03T07:48:46.903Z,22.80
2018-11-03T07:51:15.194Z,15.60
2018-11-03T07:53:43.558Z,13.17
2018-11-03T07:56:11.941Z,15.20
2018-11-03T07:58:40.298Z,18.63
2018-11-03T08:01:08.690Z,18.73
2018-11-03T08:03:37.038Z,17.13
2018-11-03T08:06:05.448Z,15.27
2018-11-03T08:08:33.888Z,16.20
2018-11-03T08:11:02.427Z,51.70
2018-11-03T08:13:30.810Z,20.47
2018-11-03T08:15:59.163Z,16.40
2018-11-03T08:18:27.552Z,15.07
2018-11-03T08:20:55.951Z,16.00
2018-11-03T08:23:24.322Z,13.93
2018-11-03T08:25:52.691Z,14.03
2018-11-03T08:28:21.059Z,13.67
2018-11-03T08:30:49.423Z,14.40
2018-11-03T08:33:17.802Z,13.70
2018-11-03T08:35:46.146Z,15.87
2018-11-03T08:38:14.514Z,13.90
2018-11-03T08:40:42.914Z,15.27
2018-11-03T08:43:11.306Z,13.90
2018-11-03T08:45:39.694Z,20.27
2018-11-03T08:48:08.120Z,21.00
2018-11-03T08:50:36.522Z,37.33
2018-11-03T08:53:05.084Z,28.90
2018-11-03T08:55:33.485Z,16.60
2018-11-03T08:58:01.963Z,16.30
2018-11-03T09:00:30.402Z,14.40
2018-11-03T09:02:58.801Z,16.40
2018-11-03T09:05:27.230Z,16.83
2018-11-03T09:07:55.639Z,16.50
2018-11-03T09:10:24.006Z,17.77
2018-11-03T09:12:52.417Z,21.00
2018-11-03T09:15:20.974Z,17.37
2018-11-03T09:17:49.293Z,19.33
2018-11-03T09:20:17.665Z,19.70
2018-11-03T09:22:46.095Z,16.37
2018-11-03T09:25:15.506Z,14.27
2018-11-03T09:27:44.327Z,17.77
2018-11-03T09:30:14.834Z,17.77
2018-11-03T09:32:43.345Z,18.47
2018-11-03T09:35:12.788Z,16.13
2018-11-03T09:37:41.194Z,17.57
2018-11-03T09:40:11.705Z,15.57
2018-11-03T09:42:40.259Z,17.83
2018-11-03T09:45:09.593Z,15.40
2018-11-03T09:47:38.018Z,15.60
2018-11-03T09:50:07.327Z,20.20
2018-11-03T09:52:35.746Z,22.50
2018-11-03T09:55:04.190Z,21.67
2018-11-03T09:57:32.627Z,15.93
2018-11-03T10:00:01.031Z,15.80
2018-11-03T10:02:29.423Z,18.17
2018-11-03T10:04:57.842Z,17.13
2018-11-03T10:07:26.230Z,14.30
2018-11-03T10:09:54.769Z,16.23
2018-11-03T10:12:23.175Z,15.67
2018-11-03T10:14:51.578Z,14.90
2018-11-03T10:17:19.971Z,16.20
2018-11-03T10:19:48.431Z,16.10
2018-11-03T10:22:17.077Z,16.10
2018-11-03T10:24:45.502Z,17.53
2018-11-03T10:27:13.953Z,12.53
2018-11-03T10:29:42.422Z,16.70
2018-11-03T10:32:10.839Z,14.70
2018-11-03T10:34:39.290Z,13.47
2018-11-03T10:37:07.688Z,13.53
2018-11-03T10:39:36.159Z,13.77
2018-11-03T10:42:04.828Z,14.33
2018-11-03T10:44:33.290Z,13.07
2018-11-03T10:47:01.797Z,14.50
2018-11-03T10:49:30.279Z,13.80
2018-11-03T10:51:59.405Z,16.20
2018-11-03T10:54:27.823Z,13.63
2018-11-03T10:56:56.312Z,16.17
2018-11-03T10:59:24.886Z,19.03
2018-11-03T11:01:58.448Z,23.80
2018-11-03T11:04:33.153Z,18.47
2018-11-03T11:09:10.924Z,14.00
2018-11-03T11:11:44.504Z,16.90
2018-11-03T11:14:13.096Z,15.43
2018-11-03T11:16:41.775Z,15.50
2018-11-03T11:19:10.296Z,16.17
2018-11-03T11:21:38.786Z,16.83
2018-11-03T11:24:07.367Z,13.80
2018-11-03T11:26:35.798Z,14.83
2018-11-03T11:29:04.507Z,15.43
2018-11-03T11:31:32.956Z,20.43
2018-11-03T11:34:02.519Z,17.83
2018-11-03T11:36:31.122Z,43.80
2018-11-03T11:38:59.559Z,17.80
2018-11-03T11:41:28.031Z,15.07
2018-11-03T11:43:56.602Z,14.40
2018-11-03T11:46:25.263Z,15.77
2018-11-03T11:48:53.658Z,14.83
2018-11-03T11:51:22.134Z,14.67
2018-11-03T11:53:50.517Z,13.50
2018-11-03T11:56:19.081Z,15.10
2018-11-03T11:58:47.523Z,16.43
2018-11-03T12:01:15.931Z,13.70
2018-11-03T12:03:44.330Z,13.70
2018-11-03T12:06:12.747Z,15.20
2018-11-03T12:08:41.220Z,14.57
2018-11-03T12:11:09.687Z,15.20
2018-11-03T12:13:38.094Z,13.60
2018-11-03T12:16:06.575Z,52.30
2018-11-03T12:18:34.967Z,21.57
2018-11-03T12:21:03.422Z,19.00
2018-11-03T12:23:31.852Z,17.10
2018-11-03T12:26:04.092Z,17.60
2018-11-03T12:28:32.535Z,16.30
2018-11-03T12:31:00.970Z,13.87
2018-11-03T12:33:29.371Z,15.47
2018-11-03T12:35:57.780Z,15.30
2018-11-03T12:38:26.191Z,14.00
2018-11-03T12:40:54.746Z,12.53
2018-11-03T12:43:23.034Z,17.23
2018-11-03T12:45:51.717Z,16.53
2018-11-03T12:48:20.271Z,14.43
2018-11-03T12:50:48.593Z,13.33
2018-11-03T12:53:16.983Z,20.13
2018-11-03T12:55:45.423Z,54.37
2018-11-03T12:58:13.926Z,15.97
2018-11-03T13:00:42.423Z,15.37
2018-11-03T13:03:11.990Z,12.90
2018-11-03T13:05:45.175Z,13.27
2018-11-03T13:08:14.155Z,14.33
2018-11-03T13:10:43.171Z,14.17
2018-11-03T13:13:11.658Z,14.27
2018-11-03T13:15:40.167Z,15.33
2018-11-03T13:18:08.595Z,16.57
2018-11-03T13:20:39.306Z,13.50
2018-11-03T13:23:07.752Z,13.67
2018-11-03T13:25:36.214Z,12.53
2018-11-03T13:28:04.986Z,15.57
2018-11-03T13:30:33.499Z,13.93
2018-11-03T13:33:01.949Z,17.40
2018-11-03T13:35:30.396Z,16.93
2018-11-03T13:37:58.903Z,13.40
2018-11-03T13:40:27.362Z,13.03
2018-11-03T13:42:55.814Z,14.40
2018-11-03T13:45:24.303Z,16.50
2018-11-03T13:47:52.818Z,14.20
2018-11-03T13:50:21.199Z,14.07
2018-11-03T13:52:49.673Z,13.53
2018-11-03T13:55:18.140Z,14.53
2018-11-03T13:57:47.023Z,15.27
2018-11-03T14:00:16.794Z,14.70
2018-11-03T14:02:46.063Z,12.70
2018-11-03T14:05:14.534Z,12.90
2018-11-03T14:07:42.966Z,14.90
2018-11-03T14:10:14.220Z,14.50
2018-11-03T14:12:43.445Z,13.70
2018-11-03T14:15:14.225Z,19.93
2018-11-03T14:17:42.667Z,15.90
2018-11-03T14:20:12.799Z,17.07
2018-11-03T14:22:41.680Z,19.43
2018-11-03T14:25:11.787Z,16.83
2018-11-03T14:27:40.540Z,16.27
2018-11-03T14:30:09.827Z,16.43
2018-11-03T14:32:38.295Z,15.53
2018-11-03T14:35:07.338Z,13.33
2018-11-03T14:37:35.782Z,14.50
2018-11-03T14:40:04.479Z,16.27
2018-11-03T14:42:32.974Z,15.40
2018-11-03T14:45:01.384Z,15.73
2018-11-03T14:47:29.831Z,16.73
2018-11-03T14:50:02.247Z,17.03
2018-11-03T14:52:31.640Z,14.13
2018-11-03T14:55:00.074Z,16.10
2018-11-03T14:57:28.547Z,13.87
2018-11-03T14:59:56.964Z,16.37
2018-11-03T15:02:25.383Z,16.90
2018-11-03T15:04:53.790Z,14.03
2018-11-03T15:07:22.199Z,14.50
2018-11-03T15:09:50.594Z,13.30
2018-11-03T15:12:19.031Z,15.47
2018-11-03T15:14:47.442Z,13.50
2018-11-03T15:17:15.883Z,16.13
2018-11-03T15:19:44.305Z,14.70
2018-11-03T15:22:12.813Z,12.20
2018-11-03T15:24:41.224Z,14.20
2018-11-03T15:27:09.655Z,13.10
2018-11-03T15:29:38.067Z,16.57
2018-11-03T15:32:06.552Z,12.63
2018-11-03T15:34:34.990Z,12.43
2018-11-03T15:37:03.383Z,18.90
2018-11-03T15:39:31.795Z,16.50
2018-11-03T15:42:00.236Z,15.80
2018-11-03T15:44:28.821Z,18.17
2018-11-03T15:46:58.367Z,14.37
2018-11-03T15:49:26.916Z,15.03
2018-11-03T15:51:55.278Z,16.00
2018-11-03T15:54:24.737Z,14.00
2018-11-03T15:56:53.120Z,13.00
2018-11-03T15:59:21.607Z,15.10
2018-11-03T16:01:49.984Z,17.67
2018-11-03T16:04:18.705Z,15.70
2018-11-03T16:06:47.146Z,15.17
2018-11-03T16:09:18.967Z,16.73
2018-11-03T16:11:49.482Z,15.07
2018-11-03T16:14:18.933Z,14.73
2018-11-03T16:16:48.417Z,12.97
2018-11-03T16:19:17.205Z,14.40
2018-11-03T16:21:46.227Z,13.87
2018-11-03T16:24:14.773Z,19.33
2018-11-03T16:26:43.379Z,16.87
2018-11-03T16:29:12.043Z,16.93
2018-11-03T16:31:40.710Z,14.53
2018-11-03T16:34:09.365Z,18.67
2018-11-03T16:36:38.036Z,18.90
2018-11-03T16:39:08.978Z,19.73
2018-11-03T16:41:42.000Z,21.83
2018-11-03T16:44:11.607Z,39.30
2018-11-03T16:46:40.127Z,19.20
2018-11-03T16:49:08.932Z,18.27
2018-11-03T16:51:37.508Z,19.80
2018-11-03T16:54:06.092Z,20.50
2018-11-03T16:56:34.752Z,20.10
2018-11-03T16:59:03.279Z,15.63
2018-11-03T17:01:31.804Z,19.20
2018-11-03T17:04:01.265Z,18.20
2018-11-03T17:06:29.811Z,18.37
2018-11-03T17:08:58.270Z,20.97
2018-11-03T17:11:26.659Z,22.70
2018-11-03T17:13:55.367Z,19.77
2018-11-03T17:16:23.857Z,23.97
2018-11-03T17:18:52.549Z,20.73
2018-11-03T17:21:20.988Z,18.57
2018-11-03T17:23:49.492Z,23.17
2018-11-03T17:26:17.958Z,25.93
2018-11-03T17:28:47.893Z,19.20
2018-11-03T17:31:21.901Z,21.13
2018-11-03T17:37:05.567Z,19.37
2018-11-03T17:39:34.694Z,29.03
2018-11-03T17:45:00.591Z,57.57
2018-11-03T17:47:29.146Z,40.87
2018-11-03T17:49:57.762Z,26.90
2018-11-03T17:52:27.212Z,24.20
2018-11-03T17:54:55.972Z,20.57
2018-11-03T17:57:24.905Z,21.30
2018-11-03T17:59:53.605Z,18.63
2018-11-03T18:02:22.590Z,21.73
2018-11-03T18:04:52.948Z,18.27
2018-11-03T18:07:24.631Z,18.80
2018-11-03T18:23:02.249Z,21.43
2018-11-03T18:28:38.226Z,19.13
2018-11-03T18:31:07.324Z,19.63
2018-11-03T18:33:40.407Z,19.23
2018-11-03T18:36:18.253Z,24.20
2018-11-03T18:38:48.439Z,20.33
2018-11-03T18:41:17.193Z,18.40
2018-11-03T18:43:45.628Z,21.47
2018-11-03T18:46:14.127Z,20.43
2018-11-03T18:48:42.644Z,22.03
2018-11-03T18:51:11.096Z,21.40
2018-11-03T18:53:39.516Z,20.63
2018-11-03T18:56:07.997Z,24.70
2018-11-03T18:58:43.149Z,54.20
2018-11-03T19:01:11.653Z,22.60
2018-11-03T19:03:40.450Z,23.10
2018-11-03T19:08:56.873Z,22.53
2018-11-03T19:11:30.937Z,23.40
2018-11-03T19:14:00.133Z,30.83
2018-11-03T19:16:29.096Z,21.03
2018-11-03T19:18:58.499Z,20.63
2018-11-03T19:24:14.950Z,17.90
2018-11-03T19:26:43.686Z,18.87
2018-11-03T19:29:12.427Z,17.60
2018-11-03T19:31:41.194Z,22.43
2018-11-03T19:34:09.737Z,18.60
2018-11-03T19:36:38.404Z,14.87
2018-11-03T19:39:10.380Z,18.40
2018-11-03T19:41:42.652Z,24.77
2018-11-03T19:44:11.552Z,18.47
2018-11-03T19:46:40.296Z,22.17
2018-11-03T19:49:09.120Z,19.53
2018-11-03T19:51:38.812Z,17.00
2018-11-03T19:54:07.394Z,19.50
2018-11-03T19:59:15.107Z,17.50
2018-11-03T20:01:43.606Z,16.70
2018-11-03T20:04:12.514Z,17.13
2018-11-03T20:06:41.184Z,21.90
2018-11-03T20:09:09.947Z,19.53
2018-11-03T20:11:38.624Z,21.17
2018-11-03T20:14:07.347Z,20.67
2018-11-03T20:16:36.408Z,23.50
2018-11-03T20:19:05.145Z,21.03
2018-11-03T20:21:34.044Z,23.30
2018-11-03T20:24:02.977Z,19.97
2018-11-03T20:26:31.768Z,15.23
2018-11-03T20:29:01.586Z,22.07
2018-11-03T20:31:30.450Z,18.43
2018-11-03T20:33:59.154Z,15.60
2018-11-03T20:36:27.841Z,18.47
2018-11-03T20:38:56.735Z,21.27
2018-11-03T20:41:36.469Z,21.23
2018-11-03T20:53:06.673Z,21.63
2018-11-03T20:55:36.207Z,20.13
2018-11-03T20:58:04.788Z,20.17
2018-11-03T21:00:35.419Z,23.30
2018-11-03T21:03:05.760Z,20.30
2018-11-03T21:05:34.839Z,21.83
2018-11-03T21:08:04.187Z,19.40
2018-11-03T21:10:32.672Z,21.57
2018-11-03T21:13:01.485Z,20.13
2018-11-03T21:15:30.033Z,20.93
2018-11-03T21:17:58.792Z,19.00
2018-11-03T21:20:27.392Z,19.10
2018-11-03T21:36:23.828Z,22.60
2018-11-03T21:39:29.647Z,21.47
2018-11-03T21:42:13.347Z,22.37
2018-11-03T21:44:43.926Z,28.70
2018-11-03T21:47:12.725Z,25.00
2018-11-03T21:49:41.843Z,20.37
2018-11-03T21:52:11.858Z,20.13
2018-11-03T21:54:40.656Z,18.60
2018-11-03T22:00:12.851Z,17.43
2018-11-03T22:02:43.231Z,18.97
2018-11-03T22:05:13.737Z,17.13
2018-11-03T22:07:45.859Z,21.90
2018-11-03T22:13:15.576Z,20.17
2018-11-03T22:15:45.052Z,23.33
2018-11-03T22:18:14.277Z,22.77
2018-11-03T22:20:42.705Z,18.17
2018-11-03T22:36:20.005Z,19.60
2018-11-03T22:38:48.588Z,23.37
2018-11-03T22:41:19.569Z,21.70
2018-11-03T22:43:48.428Z,19.10
2018-11-03T22:46:17.588Z,24.80
2018-11-03T22:48:49.688Z,16.60
2018-11-03T22:51:18.415Z,20.40
2018-11-03T22:53:58.147Z,21.17
2018-11-03T22:56:30.544Z,28.00
2018-11-03T22:59:00.631Z,30.03
2018-11-03T23:14:45.959Z,23.20
2018-11-03T23:17:21.100Z,23.30
2018-11-03T23:19:49.839Z,19.20
2018-11-03T23:22:21.635Z,19.57
2018-11-03T23:25:03.194Z,17.70
2018-11-03T23:27:31.696Z,19.97
2018-11-03T23:30:03.185Z,19.03
2018-11-03T23:32:31.627Z,21.37
2018-11-03T23:37:42.029Z,20.97
2018-11-03T23:40:25.571Z,19.37
2018-11-03T23:42:54.705Z,19.43
2018-11-03T23:45:23.648Z,18.70
2018-11-03T23:47:52.448Z,18.67
2018-11-03T23:50:21.397Z,18.13
2018-11-03T23:52:50.124Z,21.90
2018-11-03T23:55:23.071Z,20.80
2018-11-03T23:57:51.907Z,19.07
